Time;durP1;ratioP1;P1;durP2;ratioP2;P2;SDS_P1;SDS_P2;PMS_P1;PMS_P2;Temp;Humidity;BMP_temperature;BMP_pressure;BME280_temperature;BME280_humidity;BME280_pressure;Samples;Min_cycle;Max_cycle;Signal;HPM_P1;HPM_P2
2023/05/08 00:01:44;;;;;;;;;;;11.60;99.90;;;;;;5067658;28;20393;-91
2023/05/08 00:04:10;;;;;;;;;;;11.50;99.90;;;;;;5070974;28;19931;-92
2023/05/08 00:14:35;;;;;;;;;;;11.20;99.90;;;;;;5297845;22;20012;-80
2023/05/08 00:17:01;;;;;;;;;;;11.20;99.90;;;;;;5007476;28;20032;-80
2023/05/08 00:19:27;;;;;;;;;;;11.10;99.90;;;;;;4973126;28;20447;-80
2023/05/08 00:21:53;;;;;;;;;;;11.10;99.90;;;;;;4992550;28;19922;-79
2023/05/08 00:24:18;;;;;;;;;;;11.00;99.90;;;;;;4994872;28;19932;-80
2023/05/08 00:26:44;;;;;;;;;;;11.00;99.90;;;;;;5002819;28;20411;-80
2023/05/08 00:29:10;;;;;;;;;;;11.00;99.90;;;;;;4994837;28;19927;-79
2023/05/08 00:31:35;;;;;;;;;;;11.00;99.90;;;;;;4994474;28;19921;-80
2023/05/08 00:34:01;;;;;;;;;;;10.90;99.90;;;;;;4984262;28;19925;-79
2023/05/08 00:36:27;;;;;;;;;;;11.00;99.90;;;;;;4977917;28;19925;-79
2023/05/08 00:38:52;;;;;;;;;;;11.00;99.90;;;;;;4994318;28;19921;-82
2023/05/08 00:41:18;;;;;;;;;;;11.00;1.00;;;;;;5010739;28;19966;-80
2023/05/08 00:43:44;;;;;;;;;;;11.00;1.00;;;;;;4999388;28;19925;-86
2023/05/08 00:46:10;;;;;;;;;;;11.00;1.00;;;;;;4976019;28;20316;-80
2023/05/08 00:48:36;;;;;;;;;;;11.00;1.00;;;;;;4988717;28;20338;-79
2023/05/08 00:51:03;;;;;;;;;;;11.00;1.00;;;;;;4982230;28;20015;-81
2023/05/08 00:53:31;;;;;;;;;;;11.00;99.90;;;;;;4995112;28;19932;-81
2023/05/08 00:55:57;;;;;;;;;;;11.00;1.00;;;;;;4999236;28;19932;-80
2023/05/08 00:58:24;;;;;;;;;;;11.00;1.00;;;;;;4976674;28;19951;-80
2023/05/08 01:00:53;;;;;;;;;;;10.90;1.00;;;;;;4983014;28;20409;-80
2023/05/08 01:03:19;;;;;;;;;;;10.90;1.00;;;;;;4993268;28;20015;-80
2023/05/08 01:05:45;;;;;;;;;;;10.80;1.00;;;;;;4994280;28;20409;-81
2023/05/08 01:08:10;;;;;;;;;;;10.70;1.00;;;;;;4994485;28;19921;-79
2023/05/08 01:10:51;;;;;;;;;;;10.70;1.00;;;;;;5011659;28;19921;-79
2023/05/08 01:13:40;;;;;;;;;;;10.60;1.00;;;;;;4990342;28;20366;-79
2023/05/08 01:16:10;;;;;;;;;;;10.60;1.00;;;;;;4977042;28;19947;-80
2023/05/08 01:18:41;;;;;;;;;;;10.50;1.00;;;;;;4984507;28;20053;-80
2023/05/08 01:21:06;;;;;;;;;;;10.40;1.00;;;;;;4998104;28;20302;-80
2023/05/08 01:23:50;;;;;;;;;;;10.40;1.00;;;;;;4988671;28;19944;-82
2023/05/08 01:26:34;;;;;;;;;;;10.40;1.00;;;;;;4993669;28;20021;-79
2023/05/08 01:29:06;;;;;;;;;;;10.30;1.00;;;;;;4973871;28;19922;-80
2023/05/08 01:31:46;;;;;;;;;;;10.30;1.00;;;;;;4985145;28;19928;-78
2023/05/08 01:34:20;;;;;;;;;;;10.30;1.00;;;;;;5004678;28;19929;-79
2023/05/08 01:37:07;;;;;;;;;;;10.20;1.00;;;;;;5023945;28;19921;-78
2023/05/08 01:39:51;;;;;;;;;;;10.20;1.00;;;;;;4996922;28;20012;-79
2023/05/08 01:42:21;;;;;;;;;;;10.10;1.00;;;;;;4986905;28;19935;-78
2023/05/08 01:44:50;;;;;;;;;;;10.00;1.00;;;;;;4998700;28;20004;-78
2023/05/08 01:47:18;;;;;;;;;;;10.00;1.00;;;;;;5001273;28;19921;-79
2023/05/08 01:49:46;;;;;;;;;;;10.00;1.00;;;;;;4999547;28;20410;-79
2023/05/08 01:52:21;;;;;;;;;;;9.90;1.00;;;;;;4994945;28;19921;-78
2023/05/08 01:55:02;;;;;;;;;;;9.90;1.00;;;;;;5014821;28;20386;-78
2023/05/08 01:57:28;;;;;;;;;;;9.90;1.00;;;;;;5015429;28;20032;-78
2023/05/08 01:59:55;;;;;;;;;;;9.80;1.00;;;;;;5013280;28;20425;-82
2023/05/08 02:02:21;;;;;;;;;;;9.80;1.00;;;;;;4974789;28;20048;-79
2023/05/08 02:04:48;;;;;;;;;;;9.80;1.00;;;;;;4988903;28;19947;-79
2023/05/08 02:07:14;;;;;;;;;;;9.70;1.00;;;;;;4982166;28;19968;-82
2023/05/08 02:09:41;;;;;;;;;;;9.60;1.00;;;;;;5015619;28;19925;-78
2023/05/08 02:12:07;;;;;;;;;;;9.60;1.00;;;;;;4998015;28;19948;-78
2023/05/08 02:14:33;;;;;;;;;;;9.60;1.00;;;;;;4962287;28;19922;-79
2023/05/08 02:16:59;;;;;;;;;;;9.50;1.00;;;;;;4974029;28;19930;-83
2023/05/08 02:19:27;;;;;;;;;;;9.50;1.00;;;;;;4955292;28;19922;-79
2023/05/08 02:21:54;;;;;;;;;;;9.50;1.00;;;;;;4971413;28;19944;-81
2023/05/08 02:24:20;;;;;;;;;;;9.50;1.00;;;;;;4976483;28;20355;-78
2023/05/08 02:26:47;;;;;;;;;;;9.40;1.00;;;;;;4974558;28;19922;-79
2023/05/08 02:29:13;;;;;;;;;;;9.40;1.00;;;;;;4972669;28;19922;-79
2023/05/08 02:31:40;;;;;;;;;;;9.40;1.00;;;;;;4969128;28;19949;-79
2023/05/08 02:34:07;;;;;;;;;;;9.40;1.00;;;;;;4968931;28;20334;-79
2023/05/08 02:36:33;;;;;;;;;;;9.30;1.00;;;;;;4972409;28;19922;-79
2023/05/08 02:38:59;;;;;;;;;;;9.30;1.00;;;;;;4967104;28;19933;-79
2023/05/08 02:41:28;;;;;;;;;;;9.30;1.00;;;;;;4977334;28;20069;-79
2023/05/08 02:43:54;;;;;;;;;;;9.30;1.00;;;;;;4972107;28;19930;-79
2023/05/08 02:46:38;;;;;;;;;;;9.30;1.00;;;;;;4974208;28;19930;-81
2023/05/08 02:49:06;;;;;;;;;;;9.20;1.00;;;;;;4974909;28;19973;-79
2023/05/08 02:51:38;;;;;;;;;;;9.20;1.00;;;;;;4958937;28;20013;-79
2023/05/08 02:54:08;;;;;;;;;;;9.20;1.00;;;;;;4973454;28;19922;-79
2023/05/08 02:56:39;;;;;;;;;;;9.10;1.00;;;;;;4974830;28;19922;-79
2023/05/08 02:59:09;;;;;;;;;;;9.10;1.00;;;;;;4974487;28;19981;-79
2023/05/08 03:01:55;;;;;;;;;;;9.10;1.00;;;;;;4974583;28;20387;-79
2023/05/08 03:04:33;;;;;;;;;;;9.10;1.00;;;;;;4963187;28;19922;-78
2023/05/08 03:06:59;;;;;;;;;;;9.10;1.00;;;;;;4967536;28;19976;-78
2023/05/08 03:09:27;;;;;;;;;;;9.10;1.00;;;;;;4981440;28;19933;-79
2023/05/08 03:11:56;;;;;;;;;;;9.00;1.00;;;;;;4973463;28;19922;-79
2023/05/08 03:14:25;;;;;;;;;;;9.00;1.00;;;;;;4956544;28;19939;-78
2023/05/08 03:16:53;;;;;;;;;;;9.00;1.00;;;;;;4966151;28;20013;-82
2023/05/08 03:19:22;;;;;;;;;;;8.90;1.00;;;;;;4957547;28;20032;-78
2023/05/08 03:21:50;;;;;;;;;;;8.90;1.00;;;;;;4965945;28;19922;-78
2023/05/08 03:24:16;;;;;;;;;;;8.90;1.00;;;;;;4973468;28;19929;-81
2023/05/08 03:26:42;;;;;;;;;;;8.90;1.00;;;;;;4937357;28;20009;-79
2023/05/08 03:29:08;;;;;;;;;;;8.90;1.00;;;;;;4956537;28;20049;-78
2023/05/08 03:31:34;;;;;;;;;;;8.80;1.00;;;;;;4940756;28;20000;-79
2023/05/08 03:34:01;;;;;;;;;;;8.90;1.00;;;;;;4972263;28;20280;-79
2023/05/08 03:36:27;;;;;;;;;;;8.80;1.00;;;;;;4971333;28;20275;-78
2023/05/08 03:38:53;;;;;;;;;;;8.80;1.00;;;;;;4956535;28;19926;-78
2023/05/08 03:41:19;;;;;;;;;;;8.80;1.00;;;;;;4940875;28;20194;-78
2023/05/08 03:43:44;;;;;;;;;;;8.70;1.00;;;;;;4972591;28;19926;-79
2023/05/08 03:46:11;;;;;;;;;;;8.70;1.00;;;;;;4972862;28;19998;-78
2023/05/08 03:48:37;;;;;;;;;;;8.70;1.00;;;;;;4972354;28;19926;-79
2023/05/08 03:51:03;;;;;;;;;;;8.70;1.00;;;;;;4971095;28;19973;-79
2023/05/08 03:53:32;;;;;;;;;;;8.70;1.00;;;;;;4938953;28;19922;-82
2023/05/08 03:55:58;;;;;;;;;;;8.70;1.00;;;;;;4972858;28;19933;-79
2023/05/08 03:58:42;;;;;;;;;;;8.70;1.00;;;;;;4956009;28;19925;-78
2023/05/08 04:01:17;;;;;;;;;;;8.70;1.00;;;;;;4966017;28;20613;-78
2023/05/08 04:03:52;;;;;;;;;;;8.70;1.00;;;;;;4971836;28;20020;-80
2023/05/08 04:06:17;;;;;;;;;;;8.70;1.00;;;;;;4982301;28;20286;-79
2023/05/08 04:08:47;;;;;;;;;;;8.70;1.00;;;;;;4969784;28;20001;-79
2023/05/08 04:11:30;;;;;;;;;;;8.60;1.00;;;;;;4968617;28;19930;-78
2023/05/08 04:14:07;;;;;;;;;;;8.60;1.00;;;;;;4971053;28;19922;-78
2023/05/08 04:16:38;;;;;;;;;;;8.60;1.00;;;;;;4966637;28;20335;-79
2023/05/08 04:19:06;;;;;;;;;;;8.60;1.00;;;;;;4947705;29;19930;-80
2023/05/08 04:21:34;;;;;;;;;;;8.60;1.00;;;;;;4967294;28;20020;-79
2023/05/08 04:24:01;;;;;;;;;;;8.60;1.00;;;;;;4971173;28;20345;-80
2023/05/08 04:26:28;;;;;;;;;;;8.60;1.00;;;;;;4969563;28;19940;-79
2023/05/08 04:28:53;;;;;;;;;;;8.60;1.00;;;;;;4971162;28;19922;-80
2023/05/08 04:31:19;;;;;;;;;;;8.60;1.00;;;;;;4971381;28;19922;-87
2023/05/08 04:33:45;;;;;;;;;;;8.60;1.00;;;;;;4968977;28;19973;-79
2023/05/08 04:36:11;;;;;;;;;;;8.60;1.00;;;;;;4969652;28;20322;-78
2023/05/08 04:38:37;;;;;;;;;;;8.70;1.00;;;;;;4937477;28;19922;-78
2023/05/08 04:41:03;;;;;;;;;;;8.70;1.00;;;;;;4972021;28;19968;-78
2023/05/08 04:43:28;;;;;;;;;;;8.70;1.00;;;;;;4948534;28;20315;-78
2023/05/08 04:45:54;;;;;;;;;;;8.70;1.00;;;;;;4943803;28;19933;-79
2023/05/08 04:48:20;;;;;;;;;;;8.80;1.00;;;;;;4966775;28;20334;-79
2023/05/08 04:50:45;;;;;;;;;;;8.80;1.00;;;;;;4965403;28;19922;-79
2023/05/08 04:53:11;;;;;;;;;;;8.80;1.00;;;;;;4971656;28;19922;-80
2023/05/08 04:55:36;;;;;;;;;;;8.90;1.00;;;;;;4986271;28;19926;-79
2023/05/08 04:58:02;;;;;;;;;;;8.90;1.00;;;;;;4972009;28;19969;-79
2023/05/08 05:00:27;;;;;;;;;;;8.90;1.00;;;;;;4952147;28;20005;-79
2023/05/08 05:02:53;;;;;;;;;;;9.00;1.00;;;;;;4970383;28;19922;-80
2023/05/08 05:05:18;;;;;;;;;;;9.10;1.00;;;;;;4971091;28;19929;-81
2023/05/08 05:07:44;;;;;;;;;;;9.20;1.00;;;;;;4972436;28;19918;-85
2023/05/08 05:10:10;;;;;;;;;;;9.20;1.00;;;;;;4956004;28;19929;-81
2023/05/08 05:12:36;;;;;;;;;;;9.30;1.00;;;;;;4971842;28;20267;-81
2023/05/08 05:15:02;;;;;;;;;;;9.30;1.00;;;;;;4980201;28;19921;-80
2023/05/08 05:17:29;;;;;;;;;;;9.30;1.00;;;;;;4972132;28;20368;-83
2023/05/08 05:19:54;;;;;;;;;;;9.40;1.00;;;;;;4967531;28;20299;-80
2023/05/08 05:22:20;;;;;;;;;;;9.40;1.00;;;;;;4954732;28;19922;-78
2023/05/08 05:24:45;;;;;;;;;;;9.50;1.00;;;;;;4964667;28;19930;-77
2023/05/08 05:27:11;;;;;;;;;;;9.60;1.00;;;;;;4971061;28;20363;-78
2023/05/08 05:29:36;;;;;;;;;;;9.60;1.00;;;;;;4958103;28;19921;-78
2023/05/08 05:32:02;;;;;;;;;;;9.70;1.00;;;;;;4970971;28;20000;-77
2023/05/08 05:34:28;;;;;;;;;;;9.80;1.00;;;;;;4968858;28;19929;-85
2023/05/08 05:36:53;;;;;;;;;;;9.90;1.00;;;;;;4966225;28;19928;-78
2023/05/08 05:39:19;;;;;;;;;;;10.00;1.00;;;;;;4962421;28;19937;-78
2023/05/08 05:41:44;;;;;;;;;;;10.10;1.00;;;;;;4981045;28;19977;-79
2023/05/08 05:44:10;;;;;;;;;;;10.20;1.00;;;;;;4982002;28;20368;-80
2023/05/08 05:46:35;;;;;;;;;;;10.30;1.00;;;;;;4948219;28;20080;-77
2023/05/08 05:49:01;;;;;;;;;;;10.40;1.00;;;;;;4968182;28;19929;-78
2023/05/08 05:51:27;;;;;;;;;;;10.50;1.00;;;;;;4968501;28;19952;-77
2023/05/08 05:53:52;;;;;;;;;;;10.60;1.00;;;;;;4971936;28;20645;-77
2023/05/08 05:56:18;;;;;;;;;;;10.70;1.00;;;;;;4954604;28;20013;-78
2023/05/08 05:58:44;;;;;;;;;;;10.90;1.00;;;;;;4989437;28;19925;-77
2023/05/08 06:01:10;;;;;;;;;;;11.10;1.00;;;;;;4963572;28;19932;-77
2023/05/08 06:03:36;;;;;;;;;;;11.30;1.00;;;;;;4977819;28;19922;-78
2023/05/08 06:06:02;;;;;;;;;;;11.50;1.00;;;;;;4979117;28;20061;-78
2023/05/08 06:08:28;;;;;;;;;;;11.70;1.00;;;;;;4990594;28;19926;-78
2023/05/08 06:10:54;;;;;;;;;;;11.90;1.00;;;;;;4963577;28;19929;-77
2023/05/08 06:13:19;;;;;;;;;;;12.00;1.00;;;;;;4979619;28;20387;-81
2023/05/08 06:15:45;;;;;;;;;;;12.20;99.90;;;;;;4981975;28;20358;-78
2023/05/08 06:18:11;;;;;;;;;;;12.40;99.90;;;;;;4998026;28;19928;-78
2023/05/08 06:20:37;;;;;;;;;;;12.50;99.90;;;;;;4998231;28;19929;-85
2023/05/08 06:23:03;;;;;;;;;;;12.60;99.90;;;;;;4981473;28;20012;-79
2023/05/08 06:25:29;;;;;;;;;;;12.70;99.90;;;;;;4997785;28;19976;-79
2023/05/08 06:27:55;;;;;;;;;;;12.90;99.90;;;;;;4985298;28;19995;-79
2023/05/08 06:30:21;;;;;;;;;;;13.10;99.90;;;;;;4997838;28;19921;-78
2023/05/08 06:32:46;;;;;;;;;;;13.30;99.90;;;;;;4981790;28;19921;-77
2023/05/08 06:35:14;;;;;;;;;;;13.40;99.90;;;;;;5009126;28;20328;-78
2023/05/08 06:37:39;;;;;;;;;;;13.50;99.90;;;;;;4997240;28;19925;-86
2023/05/08 06:40:05;;;;;;;;;;;13.50;88.70;;;;;;5015202;28;20381;-79
2023/05/08 06:42:31;;;;;;;;;;;13.50;89.60;;;;;;4981504;28;19932;-79
2023/05/08 06:44:56;;;;;;;;;;;13.50;99.90;;;;;;4997528;28;19928;-78
2023/05/08 06:47:22;;;;;;;;;;;13.50;99.90;;;;;;4996285;28;19921;-78
2023/05/08 06:49:47;;;;;;;;;;;13.60;99.90;;;;;;4996618;28;19925;-78
2023/05/08 06:52:13;;;;;;;;;;;13.60;99.90;;;;;;5010981;28;19922;-79
2023/05/08 06:54:40;;;;;;;;;;;13.60;99.90;;;;;;5015394;28;19921;-78
2023/05/08 06:57:06;;;;;;;;;;;13.70;99.90;;;;;;4980957;28;19921;-79
2023/05/08 06:59:32;;;;;;;;;;;13.90;99.90;;;;;;4997091;28;20405;-78
2023/05/08 07:01:58;;;;;;;;;;;14.20;99.90;;;;;;5008917;28;19925;-79
2023/05/08 07:04:23;;;;;;;;;;;14.50;99.90;;;;;;4981359;28;19968;-79
2023/05/08 07:06:49;;;;;;;;;;;14.90;17.70;;;;;;4996008;28;20410;-78
2023/05/08 07:09:15;;;;;;;;;;;15.10;1.00;;;;;;4997637;28;19925;-81
2023/05/08 07:11:41;;;;;;;;;;;15.30;96.20;;;;;;4997273;28;20374;-78
2023/05/08 07:14:10;;;;;;;;;;;15.40;24.20;;;;;;4986905;28;19931;-78
2023/05/08 07:16:36;;;;;;;;;;;15.60;1.00;;;;;;4969463;28;20393;-78
2023/05/08 07:19:02;;;;;;;;;;;15.80;1.00;;;;;;4980724;28;20341;-78
2023/05/08 07:21:28;;;;;;;;;;;16.10;1.00;;;;;;4974132;28;20010;-78
2023/05/08 07:23:54;;;;;;;;;;;16.20;1.00;;;;;;4972856;28;19961;-79
2023/05/08 07:26:20;;;;;;;;;;;16.30;99.90;;;;;;4963285;28;19973;-81
2023/05/08 07:28:46;;;;;;;;;;;16.40;99.90;;;;;;4975585;28;19929;-87
2023/05/08 07:31:11;;;;;;;;;;;16.40;1.00;;;;;;4974230;28;19922;-78
2023/05/08 07:33:37;;;;;;;;;;;16.50;99.90;;;;;;4958140;28;20437;-78
2023/05/08 07:36:02;;;;;;;;;;;16.50;99.90;;;;;;4973304;28;20334;-77
2023/05/08 07:38:28;;;;;;;;;;;16.50;99.90;;;;;;4957927;28;20008;-78
2023/05/08 07:40:56;;;;;;;;;;;16.60;99.90;;;;;;4973626;28;19926;-78
2023/05/08 07:43:22;;;;;;;;;;;16.70;99.90;;;;;;4974082;28;20367;-78
2023/05/08 07:45:48;;;;;;;;;;;16.70;99.90;;;;;;4974032;28;19930;-83
2023/05/08 07:48:13;;;;;;;;;;;16.80;99.90;;;;;;4959991;28;19922;-78
2023/05/08 07:50:39;;;;;;;;;;;16.90;99.90;;;;;;4974395;28;19981;-78
2023/05/08 07:53:05;;;;;;;;;;;17.00;99.90;;;;;;4973675;28;19926;-79
2023/05/08 07:55:31;;;;;;;;;;;17.10;99.90;;;;;;4975217;28;19929;-79
2023/05/08 07:57:57;;;;;;;;;;;17.20;99.90;;;;;;4941494;28;19922;-78
2023/05/08 08:00:22;;;;;;;;;;;17.30;99.90;;;;;;4973515;28;19922;-78
2023/05/08 08:02:48;;;;;;;;;;;17.30;99.90;;;;;;4957639;28;19945;-78
2023/05/08 08:05:13;;;;;;;;;;;17.40;99.90;;;;;;4972491;28;19933;-78
2023/05/08 08:07:39;;;;;;;;;;;17.50;99.90;;;;;;4973627;28;20259;-78
2023/05/08 08:10:05;;;;;;;;;;;17.60;99.90;;;;;;4980631;28;19926;-79
2023/05/08 08:12:31;;;;;;;;;;;17.70;99.90;;;;;;4980053;28;19965;-78
2023/05/08 08:14:56;;;;;;;;;;;17.70;99.90;;;;;;4988498;28;19922;-78
2023/05/08 08:17:22;;;;;;;;;;;17.80;99.90;;;;;;4972838;28;19921;-79
2023/05/08 08:19:48;;;;;;;;;;;18.00;99.90;;;;;;4972991;28;19998;-78
2023/05/08 08:22:14;;;;;;;;;;;18.10;99.90;;;;;;4973366;28;20040;-78
2023/05/08 08:24:39;;;;;;;;;;;18.10;99.90;;;;;;4961452;28;20020;-79
2023/05/08 08:27:05;;;;;;;;;;;18.20;99.90;;;;;;4972944;28;20378;-79
2023/05/08 08:29:30;;;;;;;;;;;18.30;99.90;;;;;;4973370;28;19922;-78
2023/05/08 08:31:56;;;;;;;;;;;18.40;99.90;;;;;;4961392;28;19929;-82
2023/05/08 08:34:22;;;;;;;;;;;18.40;99.90;;;;;;4972842;28;19922;-78
2023/05/08 08:36:48;;;;;;;;;;;18.70;99.90;;;;;;4989868;28;20323;-78
2023/05/08 08:39:13;;;;;;;;;;;19.70;99.90;;;;;;4973031;28;20594;-78
2023/05/08 08:41:39;;;;;;;;;;;20.90;99.90;;;;;;4968695;28;19922;-78
2023/05/08 08:44:04;;;;;;;;;;;22.00;98.00;;;;;;4964387;28;19985;-81
2023/05/08 08:46:34;;;;;;;;;;;22.00;54.70;;;;;;4973892;28;19969;-78
2023/05/08 08:49:02;;;;;;;;;;;21.60;30.70;;;;;;4974079;28;19929;-78
2023/05/08 08:51:30;;;;;;;;;;;21.30;29.60;;;;;;4973449;28;20338;-78
2023/05/08 08:54:06;;;;;;;;;;;21.20;56.10;;;;;;4972770;28;19922;-84
2023/05/08 08:56:33;;;;;;;;;;;21.40;61.90;;;;;;4973447;28;20007;-78
2023/05/08 08:58:59;;;;;;;;;;;21.70;37.90;;;;;;4973031;28;20058;-85
2023/05/08 09:01:25;;;;;;;;;;;21.70;38.40;;;;;;4974185;28;19933;-87
2023/05/08 09:03:51;;;;;;;;;;;21.90;26.80;;;;;;4976393;28;19968;-78
2023/05/08 09:06:18;;;;;;;;;;;22.50;55.20;;;;;;4972673;28;20004;-81
2023/05/08 09:08:43;;;;;;;;;;;23.70;41.70;;;;;;4969752;28;19922;-78
2023/05/08 09:11:09;;;;;;;;;;;24.90;1.00;;;;;;4953861;28;20423;-78
2023/05/08 09:13:35;;;;;;;;;;;25.70;1.00;;;;;;4978274;28;20020;-78
2023/05/08 09:16:00;;;;;;;;;;;26.30;1.00;;;;;;5005934;28;19976;-86
2023/05/08 09:18:26;;;;;;;;;;;26.80;1.00;;;;;;5012993;28;19940;-79
2023/05/08 09:20:52;;;;;;;;;;;27.30;1.00;;;;;;5000147;28;19928;-79
2023/05/08 09:23:18;;;;;;;;;;;27.80;1.00;;;;;;4994425;28;19975;-79
2023/05/08 09:25:45;;;;;;;;;;;28.10;1.00;;;;;;4990160;28;20011;-79
2023/05/08 09:28:28;;;;;;;;;;;28.50;1.00;;;;;;5011592;28;19921;-79
2023/05/08 09:30:55;;;;;;;;;;;28.70;1.00;;;;;;4994977;28;20260;-80
2023/05/08 09:33:22;;;;;;;;;;;28.70;1.00;;;;;;4977874;28;20299;-79
2023/05/08 09:35:47;;;;;;;;;;;28.90;1.00;;;;;;4999235;28;19926;-79
2023/05/08 09:38:35;;;;;;;;;;;29.00;1.00;;;;;;5012530;28;19933;-79
2023/05/08 09:41:15;;;;;;;;;;;28.90;1.00;;;;;;5018841;28;19922;-79
2023/05/08 09:43:44;;;;;;;;;;;28.90;1.00;;;;;;4982783;28;19921;-79
2023/05/08 09:46:27;;;;;;;;;;;29.10;1.00;;;;;;4994966;28;19984;-82
2023/05/08 09:48:54;;;;;;;;;;;29.40;1.00;;;;;;5016013;28;19975;-81
2023/05/08 09:51:21;;;;;;;;;;;29.70;1.00;;;;;;4997311;28;19926;-79
2023/05/08 09:53:48;;;;;;;;;;;29.80;1.00;;;;;;5014200;28;19964;-80
2023/05/08 09:56:14;;;;;;;;;;;30.00;1.00;;;;;;5014489;28;19921;-79
2023/05/08 09:58:41;;;;;;;;;;;30.10;1.00;;;;;;5011954;28;19988;-79
2023/05/08 10:01:07;;;;;;;;;;;30.10;1.00;;;;;;5005114;28;19929;-89
2023/05/08 10:03:46;;;;;;;;;;;30.30;1.00;;;;;;4998910;28;19921;-79
2023/05/08 10:06:13;;;;;;;;;;;30.60;1.00;;;;;;4996349;28;19965;-79
2023/05/08 10:08:38;;;;;;;;;;;30.60;1.00;;;;;;5014901;28;19975;-79
2023/05/08 10:11:17;;;;;;;;;;;30.90;1.00;;;;;;4996968;28;19929;-79
2023/05/08 10:13:43;;;;;;;;;;;31.30;1.00;;;;;;5014910;28;19937;-80
2023/05/08 10:16:16;;;;;;;;;;;31.60;1.00;;;;;;4996927;28;19935;-88
2023/05/08 10:18:49;;;;;;;;;;;31.80;1.00;;;;;;5006969;28;19921;-79
2023/05/08 10:21:16;;;;;;;;;;;32.00;1.00;;;;;;4980461;28;20499;-79
2023/05/08 10:23:42;;;;;;;;;;;32.20;1.00;;;;;;4981740;28;19921;-79
2023/05/08 10:26:13;;;;;;;;;;;32.20;1.00;;;;;;4997519;28;20354;-78
2023/05/08 10:28:38;;;;;;;;;;;32.30;1.00;;;;;;4997607;28;19955;-79
2023/05/08 10:31:06;;;;;;;;;;;32.40;1.00;;;;;;4997073;28;19960;-79
2023/05/08 10:33:33;;;;;;;;;;;32.50;1.00;;;;;;4997171;28;19917;-79
2023/05/08 10:35:59;;;;;;;;;;;32.50;1.00;;;;;;5014178;28;19927;-78
2023/05/08 10:38:24;;;;;;;;;;;32.90;1.00;;;;;;5008698;28;20007;-79
2023/05/08 10:40:52;;;;;;;;;;;33.20;1.00;;;;;;5014431;28;20351;-79
2023/05/08 10:43:18;;;;;;;;;;;33.50;1.00;;;;;;5014711;28;19925;-85
2023/05/08 10:45:43;;;;;;;;;;;33.80;1.00;;;;;;5006764;28;20000;-80
2023/05/08 10:48:15;;;;;;;;;;;34.00;1.00;;;;;;4981539;28;19940;-78
2023/05/08 10:50:55;;;;;;;;;;;34.00;1.00;;;;;;5026002;28;19928;-79
2023/05/08 10:53:30;;;;;;;;;;;33.90;1.00;;;;;;5013383;28;19928;-79
2023/05/08 10:55:56;;;;;;;;;;;34.00;1.00;;;;;;5015270;28;19927;-81
2023/05/08 10:58:28;;;;;;;;;;;34.10;1.00;;;;;;5014499;28;20016;-79
2023/05/08 11:01:02;;;;;;;;;;;34.30;1.00;;;;;;5015002;28;20318;-79
2023/05/08 11:03:28;;;;;;;;;;;34.40;1.00;;;;;;4996977;28;20008;-79
2023/05/08 11:05:58;;;;;;;;;;;34.60;1.00;;;;;;5014859;28;19922;-80
2023/05/08 11:08:26;;;;;;;;;;;34.80;1.00;;;;;;4998169;28;19921;-79
2023/05/08 11:11:00;;;;;;;;;;;34.90;1.00;;;;;;4981023;28;19928;-79
2023/05/08 11:13:31;;;;;;;;;;;34.90;1.00;;;;;;4984287;28;19921;-79
2023/05/08 11:15:56;;;;;;;;;;;34.60;1.00;;;;;;5013994;28;19928;-78
2023/05/08 11:18:23;;;;;;;;;;;34.60;1.00;;;;;;5003863;28;20297;-79
2023/05/08 11:20:55;;;;;;;;;;;34.80;1.00;;;;;;5020000;28;19921;-78
2023/05/08 11:23:22;;;;;;;;;;;34.90;1.00;;;;;;5007665;28;19921;-79
2023/05/08 11:25:57;;;;;;;;;;;35.10;1.00;;;;;;5014224;28;19936;-79
2023/05/08 11:28:22;;;;;;;;;;;35.20;1.00;;;;;;4997464;28;19921;-79
2023/05/08 11:30:51;;;;;;;;;;;35.40;1.00;;;;;;4996993;28;20278;-79
2023/05/08 11:33:18;;;;;;;;;;;35.60;1.00;;;;;;4997330;28;19928;-78
2023/05/08 11:35:48;;;;;;;;;;;36.00;1.00;;;;;;4996789;28;19968;-79
2023/05/08 11:38:24;;;;;;;;;;;36.20;1.00;;;;;;5013860;28;19940;-79
2023/05/08 11:40:57;;;;;;;;;;;36.20;5.40;;;;;;4996917;28;19971;-80
2023/05/08 11:43:31;;;;;;;;;;;35.90;21.30;;;;;;4995574;28;20379;-79
2023/05/08 11:46:05;;;;;;;;;;;35.60;1.70;;;;;;5014260;28;19973;-79
2023/05/08 11:48:31;;;;;;;;;;;35.40;23.40;;;;;;5013957;28;19968;-79
2023/05/08 11:51:00;;;;;;;;;;;35.20;33.60;;;;;;4996573;28;19922;-83
2023/05/08 11:53:26;;;;;;;;;;;35.30;28.60;;;;;;5024357;28;20392;-78
2023/05/08 11:55:52;;;;;;;;;;;35.50;47.50;;;;;;5007842;28;19925;-76
2023/05/08 11:58:18;;;;;;;;;;;35.80;32.70;;;;;;4996720;28;19925;-76
2023/05/08 12:00:44;;;;;;;;;;;36.00;11.40;;;;;;4984541;28;19929;-76
2023/05/08 12:03:20;;;;;;;;;;;35.10;34.40;;;;;;4996062;28;19931;-77
2023/05/08 12:05:45;;;;;;;;;;;34.70;35.40;;;;;;4979931;28;20857;-76
2023/05/08 12:08:12;;;;;;;;;;;33.70;28.80;;;;;;4995977;28;19921;-76
2023/05/08 12:10:50;;;;;;;;;;;33.10;75.50;;;;;;4999662;28;19975;-76
2023/05/08 12:13:17;;;;;;;;;;;33.20;90.70;;;;;;5020796;28;20063;-79
2023/05/08 12:15:44;;;;;;;;;;;33.50;83.00;;;;;;4995065;28;19948;-79
2023/05/08 12:18:09;;;;;;;;;;;33.20;77.80;;;;;;4980415;28;19921;-81
2023/05/08 12:20:35;;;;;;;;;;;33.60;80.00;;;;;;5008933;28;20389;-80
2023/05/08 12:23:01;;;;;;;;;;;34.30;87.00;;;;;;4979511;28;19961;-87
2023/05/08 12:25:27;;;;;;;;;;;34.90;76.20;;;;;;4996194;28;19921;-85
2023/05/08 12:27:53;;;;;;;;;;;35.30;99.90;;;;;;5013577;28;19928;-79
2023/05/08 12:30:18;;;;;;;;;;;35.10;96.30;;;;;;5013446;28;19925;-78
2023/05/08 12:32:45;;;;;;;;;;;35.30;88.30;;;;;;5001690;28;19968;-79
2023/05/08 12:35:11;;;;;;;;;;;35.80;90.50;;;;;;5013284;28;20043;-79
2023/05/08 12:37:36;;;;;;;;;;;36.00;99.90;;;;;;4979875;28;19921;-79
2023/05/08 12:40:03;;;;;;;;;;;35.90;99.90;;;;;;4995533;28;19928;-76
2023/05/08 12:42:45;;;;;;;;;;;35.70;99.90;;;;;;4995804;28;19944;-81
2023/05/08 12:45:27;;;;;;;;;;;35.50;99.90;;;;;;5000020;28;19960;-76
2023/05/08 12:47:56;;;;;;;;;;;35.60;99.90;;;;;;4994788;28;20310;-76
2023/05/08 12:50:24;;;;;;;;;;;35.80;99.90;;;;;;4995292;28;19921;-76
2023/05/08 12:52:49;;;;;;;;;;;34.80;99.90;;;;;;4995285;28;19983;-77
2023/05/08 12:55:22;;;;;;;;;;;33.10;22.10;;;;;;4995362;28;19922;-76
2023/05/08 12:57:48;;;;;;;;;;;32.60;15.20;;;;;;4995419;28;20408;-79
2023/05/08 13:00:15;;;;;;;;;;;33.10;14.40;;;;;;4995676;28;19925;-79
2023/05/08 13:02:50;;;;;;;;;;;33.90;10.50;;;;;;4994646;28;19921;-79
2023/05/08 13:05:17;;;;;;;;;;;34.40;50.20;;;;;;4995126;28;20020;-79
2023/05/08 13:07:43;;;;;;;;;;;35.20;82.30;;;;;;5012278;28;19941;-82
2023/05/08 13:10:09;;;;;;;;;;;36.00;82.30;;;;;;5012872;28;19922;-79
2023/05/08 13:12:34;;;;;;;;;;;36.00;69.10;;;;;;5001042;28;20661;-87
2023/05/08 13:15:02;;;;;;;;;;;34.50;74.40;;;;;;4978676;28;19928;-79
2023/05/08 13:17:27;;;;;;;;;;;33.50;81.10;;;;;;4995180;28;19921;-79
2023/05/08 13:19:53;;;;;;;;;;;32.60;58.70;;;;;;4995515;28;19921;-78
2023/05/08 13:22:21;;;;;;;;;;;31.50;51.30;;;;;;4994335;28;19921;-79
2023/05/08 13:24:47;;;;;;;;;;;30.40;37.20;;;;;;4994876;28;20001;-79
2023/05/08 13:27:13;;;;;;;;;;;29.20;35.70;;;;;;4995655;28;20526;-79
2023/05/08 13:29:39;;;;;;;;;;;28.30;30.80;;;;;;4974557;28;19968;-78
2023/05/08 13:32:05;;;;;;;;;;;27.60;32.60;;;;;;4989156;28;19929;-83
2023/05/08 13:34:30;;;;;;;;;;;27.00;54.90;;;;;;5005868;28;19921;-79
2023/05/08 13:36:56;;;;;;;;;;;26.50;32.80;;;;;;4989474;28;20552;-79
2023/05/08 13:39:21;;;;;;;;;;;26.10;33.60;;;;;;4979251;28;19936;-78
2023/05/08 13:41:47;;;;;;;;;;;25.70;33.40;;;;;;5011786;28;19925;-79
2023/05/08 13:44:12;;;;;;;;;;;25.50;35.50;;;;;;4987394;28;19922;-78
2023/05/08 13:46:38;;;;;;;;;;;25.40;31.50;;;;;;5011647;28;19982;-87
2023/05/08 13:49:03;;;;;;;;;;;25.50;59.80;;;;;;4994352;28;19926;-78
2023/05/08 13:51:30;;;;;;;;;;;25.90;29.90;;;;;;5022848;28;19956;-78
2023/05/08 13:53:55;;;;;;;;;;;27.00;29.30;;;;;;4995637;28;19932;-82
2023/05/08 13:56:21;;;;;;;;;;;28.70;26.90;;;;;;5012360;28;19921;-79
2023/05/08 13:58:46;;;;;;;;;;;30.00;32.60;;;;;;4975924;28;19971;-79
2023/05/08 14:01:12;;;;;;;;;;;31.30;32.70;;;;;;5001947;28;19922;-79
2023/05/08 14:03:37;;;;;;;;;;;32.10;43.10;;;;;;5011358;28;19925;-79
2023/05/08 14:06:04;;;;;;;;;;;31.70;41.90;;;;;;4994620;28;19972;-79
2023/05/08 14:08:29;;;;;;;;;;;30.80;33.10;;;;;;4979058;28;19936;-79
2023/05/08 14:10:55;;;;;;;;;;;29.90;35.90;;;;;;4996947;28;19925;-78
2023/05/08 14:13:20;;;;;;;;;;;29.00;35.60;;;;;;4994018;28;19957;-78
2023/05/08 14:15:46;;;;;;;;;;;28.20;38.00;;;;;;4994459;28;20004;-78
2023/05/08 14:18:12;;;;;;;;;;;27.50;34.70;;;;;;4978581;28;20290;-79
2023/05/08 14:20:37;;;;;;;;;;;26.90;33.70;;;;;;4978824;28;19925;-79
2023/05/08 14:23:03;;;;;;;;;;;26.70;34.40;;;;;;4980600;28;19952;-78
2023/05/08 14:25:29;;;;;;;;;;;26.50;31.10;;;;;;4994546;28;19921;-79
2023/05/08 14:27:54;;;;;;;;;;;26.30;33.00;;;;;;4978125;28;19944;-78
2023/05/08 14:30:20;;;;;;;;;;;26.70;31.50;;;;;;4991477;28;20378;-83
2023/05/08 14:32:46;;;;;;;;;;;27.40;32.80;;;;;;4996008;28;19922;-79
2023/05/08 14:35:12;;;;;;;;;;;27.30;35.50;;;;;;4997588;28;19961;-79
2023/05/08 14:37:38;;;;;;;;;;;27.90;30.70;;;;;;4962684;28;19932;-78
2023/05/08 14:40:04;;;;;;;;;;;28.10;30.70;;;;;;5014992;28;20015;-79